createdAt,value
2019-02-25T00:02:59.322Z,68.60
2019-02-25T00:09:02.003Z,69.20
2019-02-25T00:15:04.775Z,69.60
2019-02-25T00:21:07.282Z,70.30
2019-02-25T00:27:11.759Z,69.60
2019-02-25T00:33:13.995Z,69.50
2019-02-25T00:39:18.625Z,71.60
2019-02-25T00:45:20.978Z,71.10
2019-02-25T00:51:23.368Z,70.80
2019-02-25T00:57:25.613Z,70.40
2019-02-25T01:03:27.920Z,71.10
2019-02-25T01:09:30.240Z,70.00
2019-02-25T01:15:32.452Z,69.70
2019-02-25T01:21:34.680Z,70.30
2019-02-25T01:27:39.083Z,69.60
2019-02-25T01:33:41.380Z,69.60
2019-02-25T01:39:43.563Z,69.50
2019-02-25T01:45:45.845Z,69.60
2019-02-25T01:51:51.656Z,69.40
2019-02-25T01:57:53.901Z,70.00
2019-02-25T02:03:56.100Z,69.60
2019-02-25T02:09:59.613Z,69.50
2019-02-25T02:16:01.821Z,68.40
2019-02-25T02:22:04.110Z,68.90
2019-02-25T02:28:08.302Z,67.40
2019-02-25T02:34:10.566Z,66.00
2019-02-25T02:40:13.021Z,67.10
2019-02-25T02:46:23.337Z,68.20
2019-02-25T02:52:25.575Z,67.20
2019-02-25T02:58:27.806Z,66.60
2019-02-25T03:04:31.140Z,67.30
2019-02-25T03:10:33.434Z,67.50
2019-02-25T03:16:35.669Z,67.80
2019-02-25T03:22:37.861Z,67.20
2019-02-25T03:28:42.213Z,67.00
2019-02-25T03:34:44.436Z,68.00
2019-02-25T03:40:46.681Z,68.00
2019-02-25T03:46:49.261Z,67.40
2019-02-25T03:52:51.492Z,67.20
2019-02-25T03:58:53.701Z,69.20
2019-02-25T04:04:56.047Z,68.30
2019-02-25T04:10:58.395Z,68.30
2019-02-25T04:17:00.664Z,67.20
2019-02-25T04:23:04.551Z,67.90
2019-02-25T04:29:06.764Z,67.90
2019-02-25T04:35:10.865Z,68.90
2019-02-25T04:41:13.103Z,68.60
2019-02-25T04:47:15.403Z,68.20
2019-02-25T04:53:17.696Z,67.80
2019-02-25T04:59:19.893Z,68.50
2019-02-25T05:05:22.201Z,68.80
2019-02-25T05:11:26.349Z,71.30
2019-02-25T05:17:28.616Z,72.00
2019-02-25T05:23:31.624Z,72.80
2019-02-25T05:29:33.841Z,73.30
2019-02-25T05:35:36.041Z,74.80
2019-02-25T05:41:40.357Z,75.00
2019-02-25T05:47:42.633Z,76.10
2019-02-25T05:53:44.811Z,76.80
2019-02-25T05:59:46.971Z,78.00
2019-02-25T06:05:49.255Z,78.80
2019-02-25T06:11:51.484Z,78.30
2019-02-25T06:17:53.837Z,78.90
2019-02-25T06:23:56.167Z,78.20
2019-02-25T06:29:58.486Z,78.40
2019-02-25T06:36:00.796Z,78.30
2019-02-25T06:42:03.012Z,77.60
2019-02-25T06:48:08.487Z,76.90
2019-02-25T06:54:10.880Z,76.30
2019-02-25T07:00:15.321Z,76.00
2019-02-25T07:06:22.121Z,76.30
2019-02-25T07:12:26.170Z,76.60
2019-02-25T07:18:46.802Z,76.50
2019-02-25T07:24:53.040Z,76.10
2019-02-25T07:31:11.765Z,75.50
2019-02-25T07:37:21.750Z,74.70
2019-02-25T07:43:36.159Z,74.70
2019-02-25T07:49:42.386Z,74.10
2019-02-25T07:55:49.368Z,73.20
2019-02-25T08:02:08.619Z,72.80
2019-02-25T08:08:12.867Z,72.80
2019-02-25T08:14:35.275Z,72.20
2019-02-25T08:20:39.780Z,71.60
2019-02-25T08:26:47.668Z,68.20
2019-02-25T08:33:01.241Z,68.20
2019-02-25T08:39:10.819Z,67.60
2019-02-25T08:45:18.359Z,65.40
2019-02-25T08:51:22.722Z,64.40
2019-02-25T08:57:24.880Z,61.20
2019-02-25T09:03:27.503Z,61.40
2019-02-25T09:09:30.788Z,60.40
2019-02-25T09:15:33.100Z,59.50
2019-02-25T09:21:35.279Z,58.60
2019-02-25T09:27:37.501Z,58.30
2019-02-25T09:33:40.748Z,57.40
2019-02-25T09:39:43.334Z,58.00
2019-02-25T09:45:47.608Z,55.30
2019-02-25T09:51:56.014Z,55.30
2019-02-25T09:57:58.198Z,55.80
2019-02-25T10:04:00.517Z,53.00
2019-02-25T10:10:03.767Z,52.40
2019-02-25T10:16:06.056Z,49.30
2019-02-25T10:22:08.408Z,48.30
2019-02-25T10:28:10.870Z,47.50
2019-02-25T10:34:13.053Z,45.10
2019-02-25T10:40:17.687Z,43.90
2019-02-25T10:46:19.677Z,44.70
2019-02-25T10:52:22.217Z,44.50
2019-02-25T10:58:25.322Z,44.60
2019-02-25T11:04:28.678Z,44.30
2019-02-25T11:10:32.768Z,42.00
2019-02-25T11:16:35.184Z,42.40
2019-02-25T11:22:39.389Z,41.60
2019-02-25T11:28:43.727Z,40.40
2019-02-25T11:34:46.359Z,40.40
2019-02-25T11:40:48.527Z,37.70
2019-02-25T11:46:50.784Z,35.80
2019-02-25T11:52:54.273Z,34.50
2019-02-25T11:58:56.427Z,34.30
2019-02-25T12:04:59.686Z,36.00
2019-02-25T12:11:02.579Z,36.50
2019-02-25T12:17:05.020Z,36.70
2019-02-25T12:23:07.166Z,37.60
2019-02-25T12:29:11.041Z,37.10
2019-02-25T12:35:13.528Z,37.40
2019-02-25T12:41:15.734Z,35.70
2019-02-25T12:47:17.903Z,37.60
2019-02-25T12:53:21.433Z,35.60
2019-02-25T12:59:23.578Z,35.00
2019-02-25T13:05:25.883Z,36.70
2019-02-25T13:11:28.011Z,36.00
2019-02-25T13:17:30.193Z,36.30
2019-02-25T13:23:32.446Z,36.80
2019-02-25T13:29:34.682Z,35.10
2019-02-25T13:35:37.061Z,36.20
2019-02-25T13:41:39.201Z,37.10
2019-02-25T13:47:41.696Z,38.90
2019-02-25T13:53:44.187Z,40.60
2019-02-25T13:59:48.235Z,42.20
2019-02-25T14:05:50.717Z,42.70
2019-02-25T14:11:54.267Z,44.50
2019-02-25T14:17:57.045Z,44.30
2019-02-25T14:23:59.827Z,45.10
2019-02-25T14:30:02.257Z,45.90
2019-02-25T14:36:04.745Z,45.80
2019-02-25T14:42:09.229Z,46.00
2019-02-25T14:48:15.427Z,46.90
2019-02-25T14:54:16.413Z,46.70
2019-02-25T15:00:23.362Z,46.60
2019-02-25T15:06:25.867Z,47.50
2019-02-25T15:12:31.484Z,47.50
2019-02-25T15:18:33.564Z,47.90
2019-02-25T15:24:35.830Z,48.60
2019-02-25T15:30:38.261Z,48.50
2019-02-25T15:36:40.699Z,49.20
2019-02-25T15:42:43.793Z,49.60
2019-02-25T15:48:46.069Z,50.00
2019-02-25T15:54:48.323Z,51.90
2019-02-25T16:00:50.707Z,51.80
2019-02-25T16:06:53.744Z,52.60
2019-02-25T16:12:57.764Z,52.80
2019-02-25T16:19:01.175Z,53.40
2019-02-25T16:25:05.311Z,54.10
2019-02-25T16:31:10.060Z,54.90
2019-02-25T16:37:15.068Z,57.30
2019-02-25T16:43:18.949Z,57.30
2019-02-25T16:49:21.331Z,58.60
2019-02-25T16:55:27.760Z,58.70
2019-02-25T17:01:32.018Z,60.20
2019-02-25T17:07:37.936Z,60.90
2019-02-25T17:13:41.497Z,62.40
2019-02-25T17:19:43.912Z,63.50
2019-02-25T17:25:46.315Z,64.90
2019-02-25T17:31:48.544Z,66.40
2019-02-25T17:37:50.797Z,67.20
2019-02-25T17:43:55.370Z,68.80
2019-02-25T17:50:01.141Z,69.90
2019-02-25T17:56:03.294Z,71.60
2019-02-25T18:02:08.412Z,72.40
2019-02-25T18:08:13.140Z,72.80
2019-02-25T18:14:17.524Z,73.40
2019-02-25T18:20:23.288Z,74.30
2019-02-25T18:26:28.618Z,74.70
2019-02-25T18:32:32.891Z,75.10
2019-02-25T18:38:35.915Z,76.20
2019-02-25T18:44:38.227Z,76.40
2019-02-25T18:50:45.150Z,77.30
2019-02-25T18:56:47.653Z,77.90
2019-02-25T19:02:53.575Z,79.40
2019-02-25T19:08:58.311Z,79.50
2019-02-25T19:15:02.581Z,80.60
2019-02-25T19:21:06.653Z,79.80
2019-02-25T19:27:10.960Z,80.30
2019-02-25T19:33:19.349Z,81.10
2019-02-25T19:39:21.147Z,80.70
2019-02-25T19:45:25.032Z,80.80
2019-02-25T19:51:29.700Z,81.30
2019-02-25T19:57:32.139Z,81.30
2019-02-25T20:03:37.597Z,82.10
2019-02-25T20:09:41.335Z,82.20
2019-02-25T20:15:44.476Z,82.50
2019-02-25T20:21:48.650Z,83.70
2019-02-25T20:27:52.768Z,84.70
2019-02-25T20:33:59.405Z,84.90
2019-02-25T20:40:02.138Z,85.70
2019-02-25T20:46:06.100Z,86.30
2019-02-25T20:52:08.864Z,86.00
2019-02-25T20:58:13.491Z,85.80
2019-02-25T21:04:18.415Z,86.60
2019-02-25T21:10:22.753Z,87.20
2019-02-25T21:16:28.310Z,86.70
2019-02-25T21:22:31.812Z,87.00
2019-02-25T21:28:38.035Z,87.40
2019-02-25T21:34:40.153Z,88.10
2019-02-25T21:40:43.962Z,88.60
2019-02-25T21:46:49.361Z,88.50
2019-02-25T21:52:50.576Z,88.60
2019-02-25T21:58:53.165Z,88.80
2019-02-25T22:04:57.471Z,89.10
2019-02-25T22:11:12.036Z,88.80
2019-02-25T22:17:03.977Z,89.50
2019-02-25T22:23:07.996Z,89.20
2019-02-25T22:29:12.894Z,88.70
2019-02-25T22:35:15.417Z,88.80
2019-02-25T22:41:18.873Z,89.00
2019-02-25T22:47:23.012Z,89.50
2019-02-25T22:53:25.442Z,89.20
2019-02-25T22:59:27.792Z,90.00
2019-02-25T23:05:32.091Z,90.10
2019-02-25T23:11:34.401Z,90.20
2019-02-25T23:17:37.506Z,90.40
2019-02-25T23:23:40.755Z,90.90
2019-02-25T23:29:42.941Z,90.50
2019-02-25T23:35:46.929Z,90.40
2019-02-25T23:41:49.143Z,90.30
2019-02-25T23:47:55.122Z,90.50
2019-02-25T23:53:57.379Z,90.50
2019-02-25T23:59:59.834Z,90.60
